Time;durP1;ratioP1;P1;durP2;ratioP2;P2;SDS_P1;SDS_P2;PMS_P1;PMS_P2;Temp;Humidity;BMP_temperature;BMP_pressure;BME280_temperature;BME280_humidity;BME280_pressure;Samples;Min_cycle;Max_cycle;Signal;HPM_P1;HPM_P2
2022/06/13 00:00:32;;;;;;;4.63;3.17;;;;;;;15.76;100.00;93373.06;2098069;28;20566;-82
2022/06/13 00:01:35;;;;;;;4.45;2.88;;;;;;;15.76;100.00;93378.47;2106946;28;20038;-81
2022/06/13 00:02:36;;;;;;;4.80;3.10;;;;;;;15.86;100.00;93379.25;2108374;28;20110;-81
2022/06/13 00:03:38;;;;;;;3.78;2.90;;;;;;;15.93;100.00;93381.66;2106432;28;20020;-81
2022/06/13 00:04:39;;;;;;;4.90;2.80;;;;;;;16.04;100.00;93387.41;2097910;28;20022;-81
2022/06/13 00:05:40;;;;;;;4.82;3.38;;;;;;;15.98;100.00;93391.09;2105779;28;20020;-81
2022/06/13 00:06:41;;;;;;;5.30;3.00;;;;;;;15.99;100.00;93390.69;2111645;28;20019;-81
2022/06/13 00:07:42;;;;;;;6.18;3.05;;;;;;;16.00;100.00;93394.88;2100237;28;20035;-81
2022/06/13 00:08:44;;;;;;;3.92;3.28;;;;;;;15.77;100.00;93396.13;2105864;28;20016;-80
2022/06/13 00:09:45;;;;;;;5.50;3.40;;;;;;;15.71;100.00;93395.19;2098174;28;20115;-81
2022/06/13 00:10:46;;;;;;;9.45;3.75;;;;;;;15.81;100.00;93402.13;2089828;28;20095;-82
2022/06/13 00:11:47;;;;;;;10.07;3.78;;;;;;;15.66;100.00;93392.31;2098224;28;20417;-80
2022/06/13 00:12:48;;;;;;;4.47;2.95;;;;;;;15.58;100.00;93395.25;2106704;28;20683;-82
2022/06/13 00:13:52;;;;;;;4.57;3.42;;;;;;;15.69;100.00;93402.22;2098052;28;20155;-82
2022/06/13 00:14:53;;;;;;;5.25;3.30;;;;;;;15.60;100.00;93386.72;2099156;28;20021;-81
2022/06/13 00:15:54;;;;;;;6.05;3.60;;;;;;;15.53;100.00;93379.63;2106200;28;20138;-81
2022/06/13 00:16:55;;;;;;;6.90;3.78;;;;;;;15.49;100.00;93376.31;2098377;28;20142;-82
2022/06/13 00:17:56;;;;;;;7.50;3.40;;;;;;;15.49;100.00;93381.69;2098266;28;20029;-81
2022/06/13 00:18:58;;;;;;;5.28;3.38;;;;;;;15.53;100.00;93387.72;2090075;28;20069;-80
2022/06/13 00:19:58;;;;;;;7.07;3.20;;;;;;;15.52;100.00;93401.63;2090170;28;20025;-80
2022/06/13 00:20:59;;;;;;;5.82;3.45;;;;;;;15.46;100.00;93401.47;2098092;28;20160;-83
2022/06/13 00:22:00;;;;;;;6.05;3.47;;;;;;;15.42;100.00;93413.56;2097883;28;20024;-80
2022/06/13 00:23:01;;;;;;;5.53;3.42;;;;;;;15.31;100.00;93405.84;2098312;28;20808;-84
2022/06/13 00:24:05;;;;;;;6.68;3.28;;;;;;;15.46;100.00;93404.16;2096746;28;20037;-81
2022/06/13 00:25:07;;;;;;;5.28;3.20;;;;;;;15.43;100.00;93407.72;2098727;28;20029;-84
2022/06/13 00:26:08;;;;;;;6.15;3.33;;;;;;;15.42;100.00;93406.22;2106261;28;20169;-81
2022/06/13 00:27:09;;;;;;;7.55;3.67;;;;;;;15.44;100.00;93405.78;2106346;28;20016;-83
2022/06/13 00:28:10;;;;;;;5.03;3.13;;;;;;;15.35;100.00;93409.91;2098287;28;20035;-81
2022/06/13 00:29:11;;;;;;;5.50;3.72;;;;;;;15.40;100.00;93405.91;2098236;28;20020;-81
2022/06/13 00:30:12;;;;;;;4.90;3.72;;;;;;;15.45;100.00;93415.34;2089893;28;20153;-81
2022/06/13 00:31:14;;;;;;;6.72;3.92;;;;;;;15.43;100.00;93417.75;2089706;28;20055;-83
2022/06/13 00:32:15;;;;;;;4.82;3.38;;;;;;;15.54;100.00;93408.09;2098171;28;20111;-83
2022/06/13 00:33:16;;;;;;;5.93;3.60;;;;;;;15.48;100.00;93398.31;2098225;28;20153;-82
2022/06/13 00:34:17;;;;;;;8.55;3.60;;;;;;;15.48;100.00;93401.75;2097365;28;20451;-82
2022/06/13 00:35:18;;;;;;;6.60;3.33;;;;;;;15.41;100.00;93403.94;2114945;28;20031;-80
2022/06/13 00:36:23;;;;;;;7.05;3.50;;;;;;;15.44;100.00;93403.06;2106383;28;20024;-81
2022/06/13 00:37:24;;;;;;;5.55;3.85;;;;;;;15.41;100.00;93403.94;2090888;28;20409;-83
2022/06/13 00:38:25;;;;;;;4.57;3.60;;;;;;;15.29;100.00;93402.84;2098212;28;20048;-82
2022/06/13 00:39:26;;;;;;;3.80;3.30;;;;;;;15.34;100.00;93405.72;2106512;28;20361;-83
2022/06/13 00:40:30;;;;;;;5.75;3.78;;;;;;;15.42;100.00;93402.78;2098097;28;20027;-81
2022/06/13 00:41:35;;;;;;;5.05;3.35;;;;;;;15.52;100.00;93401.63;2090655;28;20028;-82
2022/06/13 00:42:36;;;;;;;5.22;3.50;;;;;;;15.57;100.00;93399.13;2090938;28;20743;-81
2022/06/13 00:43:39;;;;;;;3.78;2.90;;;;;;;15.48;100.00;93398.31;2098109;28;20027;-82
2022/06/13 00:44:40;;;;;;;3.97;3.40;;;;;;;15.60;100.00;93394.81;2098394;28;20020;-81
2022/06/13 00:45:41;;;;;;;8.32;3.20;;;;;;;15.59;100.00;93390.59;2113092;28;20023;-82
2022/06/13 00:46:42;;;;;;;7.03;3.60;;;;;;;15.42;100.00;93390.06;2106384;28;20043;-81
2022/06/13 00:47:46;;;;;;;7.50;3.42;;;;;;;15.48;100.00;93396.38;2106244;28;20039;-80
2022/06/13 00:48:54;;;;;;;6.72;3.53;;;;;;;15.44;100.00;93397.69;2098445;28;20020;-83
2022/06/13 00:49:55;;;;;;;6.55;3.25;;;;;;;15.36;100.00;93386.41;2107598;28;20035;-82
2022/06/13 00:50:59;;;;;;;6.28;3.47;;;;;;;15.25;100.00;93384.09;2106134;28;20020;-83
2022/06/13 00:52:08;;;;;;;7.13;3.60;;;;;;;15.25;100.00;93381.41;2110465;28;20024;-83
2022/06/13 00:53:21;;;;;;;4.72;3.83;;;;;;;15.13;100.00;93387.59;2098358;28;20033;-81
2022/06/13 00:54:22;;;;;;;5.90;3.78;;;;;;;15.37;100.00;93390.63;2107452;28;20135;-82
2022/06/13 00:55:48;;;;;;;5.63;3.58;;;;;;;15.18;100.00;93378.22;2097983;28;20070;-79
2022/06/13 00:56:50;;;;;;;7.68;3.83;;;;;;;15.23;100.00;93389.19;2092188;28;20032;-80
2022/06/13 00:57:53;;;;;;;6.18;3.55;;;;;;;15.22;100.00;93384.22;2097913;28;20016;-83
2022/06/13 00:59:02;;;;;;;4.72;3.65;;;;;;;15.12;100.00;93375.34;2089942;28;20021;-84
2022/06/13 01:00:08;;;;;;;4.93;3.35;;;;;;;15.16;100.00;93375.97;2100244;28;20517;-83
2022/06/13 01:01:09;;;;;;;4.22;3.50;;;;;;;15.09;100.00;93363.50;2098333;28;20033;-81
2022/06/13 01:02:10;;;;;;;5.25;4.15;;;;;;;15.10;100.00;93372.31;2097811;28;20036;-80
2022/06/13 01:03:12;;;;;;;5.28;3.90;;;;;;;15.15;100.00;93373.72;2097824;28;20505;-81
2022/06/13 01:04:13;;;;;;;6.15;3.80;;;;;;;15.29;100.00;93371.28;2098140;28;20013;-83
2022/06/13 01:05:19;;;;;;;4.00;3.22;;;;;;;15.35;100.00;93371.44;2117546;27;20046;-83
2022/06/13 01:06:21;;;;;;;7.80;4.25;;;;;;;15.32;100.00;93364.22;2106753;28;20028;-81
2022/06/13 01:07:23;;;;;;;5.63;3.58;;;;;;;15.30;100.00;93364.69;2106551;28;20197;-81
2022/06/13 01:08:26;;;;;;;5.75;4.10;;;;;;;15.33;100.00;93363.06;2097832;28;20036;-81
2022/06/13 01:12:13;;;;;;;6.20;4.13;;;;;;;15.24;100.00;93355.69;2117006;27;20023;-82
2022/06/13 01:13:15;;;;;;;7.20;3.72;;;;;;;15.09;100.00;93358.09;2106154;28;20028;-82
2022/06/13 01:14:33;;;;;;;7.20;4.03;;;;;;;15.38;100.00;93364.44;2106439;28;20085;-80
2022/06/13 01:15:49;;;;;;;7.45;4.32;;;;;;;15.16;100.00;93364.44;2123031;27;20019;-81
2022/06/13 01:17:26;;;;;;;4.65;4.05;;;;;;;14.99;100.00;93356.53;2114504;28;20035;-81
2022/06/13 01:18:47;;;;;;;9.73;4.70;;;;;;;14.87;100.00;93349.28;2107991;28;20019;-80
2022/06/13 01:20:03;;;;;;;8.30;4.60;;;;;;;14.89;100.00;93351.53;2100243;28;20086;-80
2022/06/13 01:21:20;;;;;;;5.07;4.25;;;;;;;14.91;100.00;93352.59;2099606;28;20419;-81
2022/06/13 01:22:55;;;;;;;7.47;4.47;;;;;;;15.13;100.00;93349.91;2100910;28;20111;-80
2022/06/13 01:24:19;;;;;;;8.13;4.70;;;;;;;15.13;100.00;93349.16;2102383;28;20028;-82
2022/06/13 01:26:04;;;;;;;4.75;4.35;;;;;;;15.00;100.00;93343.84;2104428;27;20440;-81
2022/06/13 01:27:33;;;;;;;6.10;4.40;;;;;;;15.02;100.00;93344.91;2114351;28;20036;-80
2022/06/13 01:29:11;;;;;;;6.13;4.22;;;;;;;14.98;100.00;93327.38;2105181;28;20112;-80
2022/06/13 01:30:39;;;;;;;9.75;4.90;;;;;;;14.83;100.00;93332.50;2107740;28;20047;-81
2022/06/13 01:32:02;;;;;;;7.28;4.78;;;;;;;14.80;100.00;93339.50;2116313;27;20023;-81
2022/06/13 01:33:03;;;;;;;5.93;4.57;;;;;;;14.83;100.00;93341.31;2106734;28;20035;-82
2022/06/13 01:34:19;;;;;;;6.30;4.30;;;;;;;14.90;100.00;93340.34;2111460;28;20541;-82
2022/06/13 01:36:06;;;;;;;6.05;4.25;;;;;;;14.66;100.00;93328.47;2101695;28;20028;-81
2022/06/13 01:37:38;;;;;;;5.90;4.80;;;;;;;14.53;100.00;93328.50;2097578;27;20049;-80
2022/06/13 01:39:08;;;;;;;6.60;4.90;;;;;;;14.66;100.00;93333.84;2101845;28;20031;-80
2022/06/13 01:40:42;;;;;;;7.50;4.20;;;;;;;14.72;100.00;93337.50;2097328;28;20056;-80
2022/06/13 01:41:57;;;;;;;8.35;4.82;;;;;;;14.54;100.00;93341.53;2106600;28;20028;-81
2022/06/13 01:43:11;;;;;;;6.20;4.97;;;;;;;14.47;100.00;93338.31;2107812;28;20028;-81
2022/06/13 01:44:30;;;;;;;7.47;4.80;;;;;;;14.37;100.00;93345.53;2111011;27;20519;-81
2022/06/13 01:45:50;;;;;;;11.38;5.05;;;;;;;14.30;100.00;93351.13;2099764;28;20389;-81
2022/06/13 01:47:19;;;;;;;11.65;5.50;;;;;;;14.31;100.00;93352.63;2102493;28;20111;-81
2022/06/13 01:48:56;;;;;;;6.43;4.18;;;;;;;14.38;100.00;93347.03;2101241;28;20028;-81
2022/06/13 01:50:08;;;;;;;8.98;5.18;;;;;;;14.25;100.00;93347.06;2107321;28;20118;-80
2022/06/13 01:51:57;;;;;;;7.20;5.50;;;;;;;14.27;100.00;93352.03;2105358;28;20035;-80
2022/06/13 01:53:05;;;;;;;8.98;5.00;;;;;;;14.34;100.00;93360.59;2105345;28;20040;-80
2022/06/13 01:54:12;;;;;;;7.10;4.57;;;;;;;14.40;100.00;93351.97;2106721;28;20150;-81
2022/06/13 01:55:44;;;;;;;7.40;5.55;;;;;;;14.25;100.00;93354.38;2104602;28;20069;-82
2022/06/13 01:57:16;;;;;;;10.65;5.07;;;;;;;14.21;100.00;93362.56;2104307;28;20043;-81
2022/06/13 01:58:51;;;;;;;7.00;4.75;;;;;;;14.32;100.00;93354.91;2118481;27;20015;-80
2022/06/13 02:00:03;;;;;;;9.63;5.70;;;;;;;14.18;100.00;93350.00;2110498;28;20108;-82
2022/06/13 02:01:23;;;;;;;7.20;5.07;;;;;;;14.10;100.00;93349.44;2098809;28;20055;-82
2022/06/13 02:02:53;;;;;;;6.10;5.28;;;;;;;14.06;100.00;93343.44;2103139;28;20030;-81
2022/06/13 02:04:25;;;;;;;8.55;5.10;;;;;;;14.13;100.00;93334.38;2101300;28;20110;-80
2022/06/13 02:05:42;;;;;;;6.32;5.38;;;;;;;14.08;100.00;93348.38;2109901;28;20714;-81
2022/06/13 02:07:15;;;;;;;7.60;4.70;;;;;;;14.09;100.00;93349.88;2102399;28;21661;-82
2022/06/13 02:08:21;;;;;;;7.82;5.05;;;;;;;13.99;100.00;93362.47;2104887;28;20035;-81
2022/06/13 02:09:27;;;;;;;8.75;5.03;;;;;;;13.93;100.00;93358.81;2097890;28;20033;-83
2022/06/13 02:10:37;;;;;;;8.32;5.13;;;;;;;13.92;100.00;93359.25;2107258;27;20028;-80
2022/06/13 02:13:49;;;;;;;;;;;;;;;13.97;100.00;93351.41;2148456;27;20117;-81
2022/06/13 02:14:57;;;;;;;7.65;5.25;;;;;;;13.92;100.00;93349.25;2125635;27;19911;-79
2022/06/13 02:16:11;;;;;;;14.93;6.03;;;;;;;13.94;100.00;93352.25;2114959;27;20075;-82
2022/06/13 02:17:20;;;;;;;7.97;5.15;;;;;;;14.02;100.00;93366.22;2116749;27;20119;-81
2022/06/13 02:18:28;;;;;;;8.55;5.35;;;;;;;13.96;100.00;93355.28;2123674;27;20034;-82
2022/06/13 02:19:45;;;;;;;8.27;4.90;;;;;;;13.88;100.00;93339.81;2124773;27;20574;-81
2022/06/13 02:20:51;;;;;;;10.02;5.30;;;;;;;13.83;100.00;93341.09;2117425;27;20733;-81
2022/06/13 02:21:59;;;;;;;13.00;5.72;;;;;;;13.76;100.00;93346.69;2110199;28;20020;-80
2022/06/13 02:23:11;;;;;;;9.23;5.40;;;;;;;13.75;100.00;93354.00;2105677;28;20031;-80
2022/06/13 02:24:18;;;;;;;7.18;5.43;;;;;;;13.82;100.00;93348.38;2116242;27;20028;-80
2022/06/13 02:25:24;;;;;;;6.57;4.65;;;;;;;13.85;100.00;93352.16;2121427;28;20023;-82
2022/06/13 02:26:30;;;;;;;7.72;5.28;;;;;;;13.90;100.00;93356.97;2112842;28;20024;-81
2022/06/13 02:27:37;;;;;;;7.53;5.15;;;;;;;13.76;100.00;93365.47;2105177;28;20412;-81
2022/06/13 02:28:55;;;;;;;9.70;4.63;;;;;;;13.79;100.00;93360.00;2106383;28;20013;-80
2022/06/13 02:29:59;;;;;;;8.35;5.50;;;;;;;13.71;100.00;93357.97;2106691;28;20036;-80
2022/06/13 02:31:04;;;;;;;9.13;4.90;;;;;;;13.69;100.00;93350.31;2113793;27;20111;-81
2022/06/13 02:32:09;;;;;;;9.43;5.13;;;;;;;13.67;100.00;93344.63;2120843;28;20024;-80
2022/06/13 02:33:15;;;;;;;9.15;4.47;;;;;;;13.72;100.00;93344.09;2112679;28;20476;-81
2022/06/13 02:34:26;;;;;;;9.55;4.70;;;;;;;13.79;100.00;93351.94;2097688;28;20696;-81
2022/06/13 02:36:21;;;;;;;6.80;4.53;;;;;;;13.76;100.00;93358.16;2098652;28;20023;-81
2022/06/13 02:37:50;;;;;;;13.80;5.15;;;;;;;13.76;100.00;93346.69;2095873;28;20028;-80
2022/06/13 02:39:00;;;;;;;8.10;4.68;;;;;;;13.72;100.00;93346.78;2086588;28;20037;-80
2022/06/13 02:40:39;;;;;;;6.25;3.83;;;;;;;13.83;100.00;93362.59;2098694;28;20029;-82
2022/06/13 02:42:05;;;;;;;5.50;4.05;;;;;;;13.76;100.00;93358.16;2084315;28;20029;-81
2022/06/13 02:43:19;;;;;;;6.15;4.20;;;;;;;13.86;100.00;93361.72;2086081;28;20029;-81
2022/06/13 02:44:42;;;;;;;10.80;5.10;;;;;;;13.73;100.00;93358.28;2104086;28;20392;-80
2022/06/13 02:45:50;;;;;;;6.88;4.40;;;;;;;13.55;100.00;93354.19;2112966;27;21681;-80
2022/06/13 02:46:56;;;;;;;6.45;4.38;;;;;;;13.50;100.00;93356.66;2113731;28;20024;-80
2022/06/13 02:48:16;;;;;;;5.88;4.18;;;;;;;13.56;100.00;93369.13;2105192;28;20027;-80
2022/06/13 02:49:41;;;;;;;7.22;4.35;;;;;;;13.46;100.00;93372.84;2109745;28;20497;-80
2022/06/13 02:50:52;;;;;;;10.02;4.72;;;;;;;13.40;100.00;93368.47;2112698;28;20107;-81
2022/06/13 02:52:12;;;;;;;7.25;4.10;;;;;;;13.34;100.00;93371.69;2095707;28;20116;-81
2022/06/13 02:53:34;;;;;;;9.95;4.20;;;;;;;13.31;100.00;93366.41;2098872;28;20082;-80
2022/06/13 02:54:54;;;;;;;6.72;3.85;;;;;;;13.38;100.00;93373.50;2110129;28;20030;-81
2022/06/13 02:56:13;;;;;;;7.07;3.80;;;;;;;13.44;100.00;93371.81;2101220;28;20033;-81
2022/06/13 02:57:52;;;;;;;10.13;3.83;;;;;;;13.34;100.00;93382.41;2104325;28;20568;-81
2022/06/13 02:59:17;;;;;;;6.03;3.63;;;;;;;13.41;100.00;93384.13;2106220;28;20442;-80
2022/06/13 03:00:38;;;;;;;7.95;3.78;;;;;;;13.38;100.00;93379.59;2107547;28;20407;-82
2022/06/13 03:01:47;;;;;;;8.27;3.50;;;;;;;13.29;100.00;93379.47;2101608;28;20034;-79
2022/06/13 03:03:04;;;;;;;8.02;3.83;;;;;;;13.17;100.00;93370.22;2105317;28;20024;-80
2022/06/13 03:04:23;;;;;;;7.13;3.85;;;;;;;13.11;100.00;93369.97;2098223;28;20095;-81
2022/06/13 03:05:46;;;;;;;8.15;3.80;;;;;;;13.24;100.00;93371.97;2112689;28;20024;-80
2022/06/13 03:07:12;;;;;;;6.13;3.50;;;;;;;13.05;100.00;93368.22;2104245;28;20056;-81
2022/06/13 03:08:39;;;;;;;6.93;3.80;;;;;;;13.37;100.00;93386.16;2125613;27;20026;-80
2022/06/13 03:09:54;;;;;;;8.45;3.70;;;;;;;13.27;100.00;93381.84;2129657;27;20103;-80
2022/06/13 03:11:04;;;;;;;7.85;3.83;;;;;;;13.24;100.00;93382.69;2114562;28;20020;-79
2022/06/13 03:12:12;;;;;;;;;;;;;;;13.42;100.00;93379.50;2107273;28;20020;-81
2022/06/13 03:13:32;;;;;;;6.78;3.80;;;;;;;13.27;100.00;93382.59;2113512;28;19968;-80
2022/06/13 03:14:47;;;;;;;7.20;3.70;;;;;;;13.20;100.00;93377.38;2090159;28;20120;-80
2022/06/13 03:16:05;;;;;;;9.57;4.15;;;;;;;13.04;100.00;93369.41;2091440;28;20498;-80
2022/06/13 03:17:20;;;;;;;5.57;3.42;;;;;;;12.94;100.00;93373.88;2089872;28;20025;-81
2022/06/13 03:18:44;;;;;;;6.20;3.60;;;;;;;13.15;100.00;93374.47;2091793;28;20171;-80
2022/06/13 03:20:09;;;;;;;5.68;3.70;;;;;;;13.13;100.00;93371.47;2090533;28;20075;-81
2022/06/13 03:21:14;;;;;;;6.45;3.50;;;;;;;12.95;100.00;93371.94;2093856;28;20048;-80
2022/06/13 03:22:15;;;;;;;5.57;3.33;;;;;;;12.97;100.00;93369.59;2093537;28;20086;-81
2022/06/13 03:23:45;;;;;;;5.03;3.22;;;;;;;12.97;100.00;93377.66;2087640;28;20037;-80
2022/06/13 03:25:18;;;;;;;6.70;3.40;;;;;;;13.09;100.00;93372.31;2091676;28;20071;-81
2022/06/13 03:26:43;;;;;;;5.75;3.47;;;;;;;12.87;100.00;93366.03;2084281;28;20135;-80
2022/06/13 03:27:46;;;;;;;5.50;3.03;;;;;;;12.87;100.00;93371.41;2088556;28;20111;-80
2022/06/13 03:28:52;;;;;;;6.93;3.67;;;;;;;12.81;100.00;93365.78;2098915;28;20024;-81
2022/06/13 03:30:01;;;;;;;7.10;3.83;;;;;;;12.80;100.00;93363.53;2098304;28;20033;-80
2022/06/13 03:31:18;;;;;;;6.30;3.35;;;;;;;12.71;100.00;93364.13;2083008;28;20021;-80
2022/06/13 03:32:25;;;;;;;10.15;3.95;;;;;;;12.87;100.00;93371.41;2094459;28;20092;-81
2022/06/13 03:33:40;;;;;;;6.00;2.97;;;;;;;12.90;100.00;93375.88;2106883;28;20492;-81
2022/06/13 03:34:49;;;;;;;6.68;3.28;;;;;;;12.63;100.00;93370.84;2098644;28;20052;-80
2022/06/13 03:35:51;;;;;;;6.72;3.65;;;;;;;12.59;100.00;93383.59;2107058;28;20024;-79
2022/06/13 03:36:58;;;;;;;7.43;3.47;;;;;;;12.76;100.00;93378.97;2098503;28;20028;-80
2022/06/13 03:38:03;;;;;;;9.55;3.45;;;;;;;12.77;100.00;93373.16;2091599;28;20092;-80
2022/06/13 03:39:19;;;;;;;4.93;3.20;;;;;;;12.82;100.00;93374.59;2091360;28;20057;-80
2022/06/13 03:40:25;;;;;;;6.93;3.00;;;;;;;12.91;100.00;93360.56;2094255;28;20032;-81
2022/06/13 03:41:32;;;;;;;5.07;3.13;;;;;;;12.96;100.00;93368.84;2099463;28;20042;-81
2022/06/13 03:42:46;;;;;;;10.38;3.30;;;;;;;12.90;100.00;93375.88;2106759;28;20054;-82
2022/06/13 03:43:54;;;;;;;5.50;3.03;;;;;;;12.81;100.00;93367.69;2100271;28;20362;-82
2022/06/13 03:45:03;;;;;;;5.72;2.92;;;;;;;12.89;100.00;93362.91;2092351;28;20024;-79
2022/06/13 03:46:24;;;;;;;6.97;2.80;;;;;;;13.13;100.00;93366.13;2089815;28;20486;-82
2022/06/13 03:47:27;;;;;;;7.43;3.15;;;;;;;12.83;100.00;93370.72;2087226;28;20049;-81
2022/06/13 03:48:44;;;;;;;9.63;3.67;;;;;;;12.84;100.00;93366.88;2081918;28;20447;-81
2022/06/13 03:49:56;;;;;;;9.30;3.25;;;;;;;12.76;100.00;93365.53;2086174;28;20025;-80
2022/06/13 03:51:06;;;;;;;6.70;3.10;;;;;;;12.70;100.00;93370.69;2091546;28;20476;-80
2022/06/13 03:52:12;;;;;;;8.27;2.85;;;;;;;12.94;100.00;93373.88;2095017;28;20090;-81
2022/06/13 03:53:42;;;;;;;6.00;2.72;;;;;;;12.85;100.00;93376.41;2091267;28;20426;-81
2022/06/13 03:54:51;;;;;;;6.40;3.10;;;;;;;12.84;100.00;93383.72;2094125;28;20028;-82
2022/06/13 03:56:09;;;;;;;6.65;2.60;;;;;;;12.97;100.00;93381.09;2090887;28;20021;-83
2022/06/13 03:57:37;;;;;;;5.25;3.10;;;;;;;12.90;100.00;93370.53;2092214;28;20163;-81
2022/06/13 03:58:44;;;;;;;8.77;2.83;;;;;;;12.71;100.00;93372.19;2093413;28;20028;-82
2022/06/13 04:00:11;;;;;;;9.73;3.58;;;;;;;12.64;100.00;93366.97;2089847;28;20115;-82
2022/06/13 04:01:36;;;;;;;6.75;3.25;;;;;;;12.77;100.00;93367.03;2082759;28;20501;-82
2022/06/13 04:02:40;;;;;;;4.97;3.13;;;;;;;12.79;100.00;93365.47;2096528;28;20028;-82
2022/06/13 04:03:42;;;;;;;8.07;3.17;;;;;;;12.78;100.00;93366.63;2098084;28;20090;-81
2022/06/13 04:04:50;;;;;;;4.22;2.78;;;;;;;12.73;100.00;93374.44;2098548;28;20027;-81
2022/06/13 04:06:04;;;;;;;6.57;3.10;;;;;;;12.75;100.00;93378.22;2113346;27;20076;-80
2022/06/13 04:07:05;;;;;;;7.25;2.78;;;;;;;12.63;100.00;93384.25;2108572;28;20023;-82
2022/06/13 04:08:09;;;;;;;8.55;3.03;;;;;;;12.59;100.00;93378.22;2106725;28;20028;-81
2022/06/13 04:09:25;;;;;;;4.93;2.95;;;;;;;12.59;100.00;93373.63;2106892;28;20111;-81
2022/06/13 04:10:28;;;;;;;10.38;3.13;;;;;;;12.88;100.00;93377.50;2100109;28;20591;-80
2022/06/13 04:11:32;;;;;;;4.00;2.88;;;;;;;12.82;100.00;93374.59;2090554;28;20020;-82
2022/06/13 04:12:48;;;;;;;8.38;3.30;;;;;;;12.78;100.00;93373.94;2090845;28;20025;-80
2022/06/13 04:14:04;;;;;;;4.75;2.58;;;;;;;12.73;100.00;93372.53;2108989;28;20032;-82
2022/06/13 04:15:23;;;;;;;10.38;3.33;;;;;;;12.76;100.00;93377.03;2114869;28;20566;-81
2022/06/13 04:16:46;;;;;;;8.30;3.07;;;;;;;12.77;100.00;93370.47;2098117;28;20127;-80
2022/06/13 04:18:00;;;;;;;5.00;3.00;;;;;;;12.76;100.00;93377.03;2104242;28;20477;-81
2022/06/13 04:19:08;;;;;;;9.68;3.05;;;;;;;12.77;100.00;93375.09;2098190;28;20070;-81
2022/06/13 04:20:41;;;;;;;8.00;3.40;;;;;;;12.79;100.00;93362.03;2083408;28;20025;-81
2022/06/13 04:22:00;;;;;;;4.60;2.50;;;;;;;12.83;100.00;93368.06;2097466;28;20030;-80
2022/06/13 04:23:24;;;;;;;7.40;2.83;;;;;;;12.79;100.00;93370.81;2084109;28;20025;-81
2022/06/13 04:24:43;;;;;;;3.47;2.38;;;;;;;12.72;100.00;93373.69;2088028;28;20034;-82
2022/06/13 04:26:02;;;;;;;7.30;2.80;;;;;;;12.76;100.00;93377.03;2092057;28;20057;-80
2022/06/13 04:27:12;;;;;;;10.35;3.13;;;;;;;12.78;100.00;93376.63;2101842;28;20024;-80
2022/06/13 04:28:22;;;;;;;5.43;2.92;;;;;;;12.66;100.00;93377.31;2103506;28;20024;-81
2022/06/13 04:29:35;;;;;;;6.68;3.00;;;;;;;12.72;100.00;93376.34;2100558;28;20075;-80
2022/06/13 04:30:46;;;;;;;6.47;2.80;;;;;;;12.76;100.00;93376.28;2099594;28;20031;-81
2022/06/13 04:31:57;;;;;;;3.60;2.42;;;;;;;12.89;100.00;93374.41;2100341;28;20226;-80
2022/06/13 04:33:37;;;;;;;10.55;3.10;;;;;;;12.77;100.00;93367.78;2101465;28;20087;-81
2022/06/13 04:34:52;;;;;;;10.55;2.78;;;;;;;12.80;100.00;93372.31;2105094;28;20024;-81
2022/06/13 04:36:00;;;;;;;6.60;2.53;;;;;;;12.81;100.00;93373.06;2099758;28;20546;-81
2022/06/13 04:37:10;;;;;;;8.70;2.92;;;;;;;12.82;100.00;93363.88;2087068;28;20047;-80
2022/06/13 04:38:15;;;;;;;5.15;3.08;;;;;;;12.88;100.00;93351.44;2102977;27;20366;-81
2022/06/13 04:39:42;;;;;;;5.75;2.72;;;;;;;13.26;100.00;93364.25;2106156;28;20388;-82
2022/06/13 04:40:48;;;;;;;12.85;3.20;;;;;;;13.16;100.00;93351.81;2097966;28;20028;-82
2022/06/13 04:41:51;;;;;;;4.63;2.53;;;;;;;13.08;100.00;93360.09;2089239;28;20021;-81
2022/06/13 04:42:54;;;;;;;5.90;2.95;;;;;;;13.24;100.00;93361.22;2082165;28;20029;-81
2022/06/13 04:43:58;;;;;;;7.97;2.80;;;;;;;13.13;100.00;93355.38;2081689;28;20474;-81
2022/06/13 04:45:03;;;;;;;9.23;3.13;;;;;;;13.05;100.00;93355.56;2081800;28;20120;-79
2022/06/13 04:46:11;;;;;;;4.03;3.00;;;;;;;13.20;100.00;93358.59;2082427;28;20683;-82
2022/06/13 04:47:16;;;;;;;9.05;4.07;;;;;;;13.29;100.00;93352.63;2090426;28;20548;-83
2022/06/13 04:48:19;;;;;;;6.82;3.35;;;;;;;13.11;100.00;93356.53;2097796;28;20032;-80
2022/06/13 04:49:26;;;;;;;4.18;2.97;;;;;;;13.48;100.00;93354.41;2097245;28;20725;-81
2022/06/13 04:50:36;;;;;;;5.93;2.90;;;;;;;13.70;100.00;93359.16;2114938;27;20037;-82
2022/06/13 04:51:41;;;;;;;8.20;3.00;;;;;;;13.58;100.00;93364.06;2113782;27;20379;-82
2022/06/13 04:52:45;;;;;;;8.20;3.20;;;;;;;13.40;100.00;93357.72;2081367;28;20056;-82
2022/06/13 04:53:59;;;;;;;7.20;3.38;;;;;;;13.60;100.00;93364.38;2088790;28;20498;-82
2022/06/13 04:55:06;;;;;;;4.97;3.05;;;;;;;13.42;100.00;93352.66;2093136;28;20080;-81
2022/06/13 04:56:07;;;;;;;4.88;3.42;;;;;;;13.28;100.00;93362.63;2104709;28;20024;-82
2022/06/13 04:57:17;;;;;;;9.73;4.05;;;;;;;13.25;100.00;93360.78;2106080;28;20054;-82
2022/06/13 04:58:38;;;;;;;6.25;3.65;;;;;;;13.31;100.00;93361.03;2098936;28;20020;-80
2022/06/13 04:59:48;;;;;;;7.35;3.70;;;;;;;13.41;100.00;93364.59;2090125;28;20031;-82
2022/06/13 05:01:16;;;;;;;10.53;3.90;;;;;;;13.73;100.00;93363.66;2087910;28;20020;-81
2022/06/13 05:02:39;;;;;;;7.85;3.78;;;;;;;13.73;100.00;93364.41;2097234;28;20454;-82
2022/06/13 05:03:48;;;;;;;8.20;3.78;;;;;;;13.64;100.00;93366.22;2091523;28;20036;-80
2022/06/13 05:04:57;;;;;;;6.28;4.03;;;;;;;13.47;100.00;93365.56;2093713;28;20021;-80
2022/06/13 05:06:12;;;;;;;9.18;3.70;;;;;;;13.68;100.00;93364.19;2079816;28;20022;-82
2022/06/13 05:07:27;;;;;;;8.00;4.32;;;;;;;13.70;100.00;93372.59;2082340;28;20025;-81
2022/06/13 05:08:32;;;;;;;8.40;3.88;;;;;;;13.68;100.00;93372.25;2106181;28;20020;-80
2022/06/13 05:09:41;;;;;;;7.50;3.63;;;;;;;13.79;100.00;93372.69;2107293;28;20028;-80
2022/06/13 05:10:53;;;;;;;5.45;3.70;;;;;;;13.66;100.00;93372.69;2097503;28;20025;-82
2022/06/13 05:12:05;;;;;;;9.98;4.30;;;;;;;13.65;100.00;93370.41;2091137;28;20477;-81
2022/06/13 05:13:12;;;;;;;4.43;3.55;;;;;;;13.61;100.00;93362.47;2093824;28;20123;-83
2022/06/13 05:14:27;;;;;;;7.80;3.83;;;;;;;13.86;100.00;93365.16;2105388;28;20028;-80
2022/06/13 05:15:36;;;;;;;11.13;4.15;;;;;;;13.85;100.00;93365.59;2115345;27;20031;-81
2022/06/13 05:16:56;;;;;;;5.35;3.25;;;;;;;13.89;100.00;93365.50;2112919;28;20031;-82
2022/06/13 05:18:35;;;;;;;6.18;3.13;;;;;;;14.05;100.00;93368.06;2101962;28;20024;-80
2022/06/13 05:20:09;;;;;;;7.22;3.50;;;;;;;13.96;100.00;93382.16;2115438;27;20030;-80
2022/06/13 05:21:39;;;;;;;6.30;3.25;;;;;;;14.21;100.00;93378.69;2110533;28;20039;-82
2022/06/13 05:23:02;;;;;;;5.25;3.65;;;;;;;14.17;100.00;93378.03;2105103;27;20028;-81
2022/06/13 05:24:19;;;;;;;8.40;3.83;;;;;;;13.98;100.00;93379.03;2096258;28;20095;-80
2022/06/13 05:25:43;;;;;;;7.47;3.60;;;;;;;13.99;100.00;93375.91;2091178;28;20126;-81
2022/06/13 05:26:44;;;;;;;8.43;3.90;;;;;;;14.18;100.00;93381.47;2095895;28;20020;-81
2022/06/13 05:27:45;;;;;;;4.90;3.67;;;;;;;14.17;100.00;93377.28;2103792;28;20111;-80
2022/06/13 05:28:47;;;;;;;10.48;3.60;;;;;;;14.19;100.00;93377.63;2104744;28;20028;-81
2022/06/13 05:29:53;;;;;;;7.95;3.75;;;;;;;14.22;100.00;93377.50;2096335;28;20025;-81
2022/06/13 05:30:56;;;;;;;10.55;4.00;;;;;;;14.23;100.00;93384.41;2098265;27;20024;-81
2022/06/13 05:31:58;;;;;;;9.15;3.88;;;;;;;14.34;100.00;93384.03;2112678;28;20045;-81
2022/06/13 05:32:59;;;;;;;8.57;3.60;;;;;;;14.38;100.00;93392.75;2101364;28;20082;-81
2022/06/13 05:34:02;;;;;;;6.60;3.70;;;;;;;14.36;100.00;93384.38;2105001;28;20050;-82
2022/06/13 05:35:04;;;;;;;7.57;3.67;;;;;;;14.31;100.00;93390.28;2113679;27;20050;-80
2022/06/13 05:36:08;;;;;;;7.43;3.65;;;;;;;14.34;100.00;93384.03;2099097;28;20032;-81
2022/06/13 05:37:12;;;;;;;6.80;3.92;;;;;;;14.24;100.00;93385.88;2088528;28;20202;-81
2022/06/13 05:38:17;;;;;;;8.52;3.92;;;;;;;14.17;100.00;93393.41;2097068;28;20024;-81
2022/06/13 05:39:20;;;;;;;8.77;3.75;;;;;;;14.37;100.00;93391.25;2096839;28;20543;-82
2022/06/13 05:40:24;;;;;;;6.65;3.50;;;;;;;14.51;100.00;93392.75;2092873;28;20009;-80